Sitka Rocky Gutierrez Airport
PASI : rendu visible

Aérodrome :











RETROUVEZ-NOUS SUR...

 
LOGIN :

S'inscrire | Disclaimer

   EN    FR    IT 

 









Légende :    VFR   VFR Marginal   IFR   IFR Intensif   IFR Très Intensif
Visi : 
Plafond : 
>= 8 km
>= 3000ft
5 à 8 km
1000 à 3000 ft
1500m à 5 km
500 à 1000 ft
800 à 1500m
200 à 500 ft
< 800m
< 200 ft
Symboles :   Orages  Brouillard  Fortes neiges  Fortes précipitations  Vent > 20 kt






- Altitude de l'aérodrome : 21 ft
- Code IATA : SIT


PASI - Sitka Rocky Gutierrez

DERNIER METAR :
  • 070025Z 29015KT 7SM FEW005 SCT020 BKN060 02/M01 A2992 RMK AO2 PK WND 29038/2358 UPB21E22SNE21 P0001 T00221006 $

METARs EXPIRÉS :
  • 070016Z 32014KT 5SM -SN BR SCT005 BKN011 BKN026 01/M01 A2991 RMK AO2 PK WND 29038/2358 P0001 T00111006 $
  • 070008Z 31018G35KT 1/2SM SN FG VV006 01/M01 A2992 RMK AO2 PK WND 29038/2358 P0001 T00111011 $
  • 062358Z 29027G38KT 1SM -SN VV006 02/M01 A2992 RMK AO2 PK WND 29038/2358 P0000 T00221006 $
  • 062336Z 30018KT 5SM -SN BR FEW008 BKN021 OVC037 02/00 A2991 RMK AO2 PK WND 29034/2323 UPB31E33SNE31B33 P0004 T00170000 $
  • 062314Z 26015KT 1 1/4SM -SN BR OVC006 02/00 A2990 RMK AO2 PK WND 28026/2300 P0003 T00170000 $
  • 062253Z 30018KT 1/2SM -SN FG VV004 01/M01 A2989 RMK AO2 PK WND 27027/2217 SNE09B17 SLP121 P0003 T00111006 $
  • 062244Z 30019KT 2SM -SN BR SCT018 BKN028 OVC065 02/00 A2988 RMK AO2 PK WND 27027/2217 SNE09B17 P0001 T00220000
  • 062234Z 29017KT 3SM -SN SCT022 BKN050 OVC065 03/00 A2988 RMK AO2 PK WND 27027/2217 SNE09B17 P0001 T00280000
  • 062212Z 30013KT 4SM BR FEW007 BKN018 BKN043 02/00 A2987 RMK AO2 SNE09 P0000 T00220000
  • 062153Z 28013KT 4SM -SN BR FEW004 BKN010 OVC035 02/01 A2987 RMK AO2 PK WND 26027/2127 RAB32E35SNB35 SLP114 P0002 T00220006
  • 062144Z 27019KT 3/4SM -SN BR BKN012 BKN035 OVC055 02/00 A2987 RMK AO2 PK WND 26027/2127 RAB32E35SNB35 P0001 T00220000

TAF PASI
Valide du 07 à 00h jusqu'au 08 à 00h UTC


062321Z 0700/0724 26015G25KT 5SM -SHRASN SCT010 BKN025 OVC050 WS020/28035KT
TEMPO 0700/0704 2SM -SHSN BR BKN008
FM070400 28013G21KT 6SM -SHRASN SCT030 BKN050 WS020/28030KT
FM070900 19010G16KT 6SM -SHSNRA SCT030 BKN080
FM071500 12008KT P6SM VCSH SCT050 BKN080



MET'MAP, la Météo Aéronautique d'un coup d'oeil ! - Copyright ORBIFLY Décembre 2007 - Disclaimer

ORBIFLY MET'MAP TEAM :

Programmation & Développement : Alexandra Zaïnal
Sur une idée originale de : Baudouin d'Aumeries
Assistance à la programmation : Marc-Olivier Méhu
Soutien technique & logistique : Manuel Goepfert

Contact : metmap@orbifly.com




SOURCES & CREDITS :

   NOAA       Earth
Advisory